createdAt,value
2018-05-26T00:01:59.728Z,7.53
2018-05-26T00:04:28.005Z,8.03
2018-05-26T00:06:56.285Z,9.97
2018-05-26T00:09:24.557Z,8.83
2018-05-26T00:11:52.846Z,7.37
2018-05-26T00:14:21.106Z,8.67
2018-05-26T00:16:49.385Z,7.23
2018-05-26T00:19:17.653Z,8.33
2018-05-26T00:21:45.934Z,7.63
2018-05-26T00:24:14.205Z,8.57
2018-05-26T00:26:42.485Z,7.43
2018-05-26T00:29:10.757Z,8.03
2018-05-26T00:31:39.022Z,6.97
2018-05-26T00:34:07.298Z,7.13
2018-05-26T00:36:35.591Z,7.67
2018-05-26T00:39:03.874Z,10.07
2018-05-26T00:41:32.153Z,9.77
2018-05-26T00:44:00.429Z,8.13
2018-05-26T00:46:28.702Z,9.20
2018-05-26T00:48:56.993Z,10.53
2018-05-26T00:51:25.266Z,8.10
2018-05-26T00:53:53.553Z,7.93
2018-05-26T00:56:21.837Z,8.17
2018-05-26T00:58:50.117Z,7.43
2018-05-26T01:01:18.418Z,8.20
2018-05-26T01:03:46.697Z,7.33
2018-05-26T01:06:14.979Z,8.87
2018-05-26T01:08:43.251Z,8.53
2018-05-26T01:11:11.537Z,10.43
2018-05-26T01:13:39.821Z,9.37
2018-05-26T01:16:08.108Z,8.17
2018-05-26T01:18:36.397Z,8.00
2018-05-26T01:21:04.698Z,9.93
2018-05-26T01:23:32.970Z,7.60
2018-05-26T01:26:01.243Z,10.57
2018-05-26T01:28:29.529Z,9.90
2018-05-26T01:30:57.805Z,8.90
2018-05-26T01:33:26.081Z,8.87
2018-05-26T01:35:54.381Z,8.57
2018-05-26T01:38:22.677Z,8.23
2018-05-26T01:40:50.967Z,8.23
2018-05-26T01:43:19.253Z,7.80
2018-05-26T01:45:47.529Z,10.80
2018-05-26T01:48:15.810Z,7.53
2018-05-26T01:50:44.081Z,7.93
2018-05-26T01:53:12.358Z,10.23
2018-05-26T01:55:40.641Z,9.77
2018-05-26T01:58:08.914Z,9.90
2018-05-26T02:00:37.203Z,10.47
2018-05-26T02:03:05.482Z,9.33
2018-05-26T02:05:33.774Z,9.47
2018-05-26T02:08:02.045Z,9.37
2018-05-26T02:10:30.317Z,9.60
2018-05-26T02:12:58.593Z,7.77
2018-05-26T02:15:26.865Z,9.17
2018-05-26T02:17:55.145Z,8.40
2018-05-26T02:20:23.422Z,8.53
2018-05-26T02:22:51.701Z,7.60
2018-05-26T02:25:19.978Z,7.60
2018-05-26T02:27:49.836Z,7.43
2018-05-26T02:30:18.110Z,7.70
2018-05-26T02:32:46.418Z,9.33
2018-05-26T02:35:14.690Z,8.20
2018-05-26T02:37:42.966Z,11.03
2018-05-26T02:40:11.260Z,9.80
2018-05-26T02:42:39.533Z,9.93
2018-05-26T02:45:07.815Z,9.53
2018-05-26T02:47:36.094Z,8.67
2018-05-26T02:50:04.361Z,9.00
2018-05-26T02:52:32.644Z,9.40
2018-05-26T02:55:00.922Z,8.67
2018-05-26T02:57:29.189Z,8.60
2018-05-26T02:59:57.470Z,9.47
2018-05-26T03:02:25.741Z,7.60
2018-05-26T03:04:59.557Z,8.53
2018-05-26T03:07:33.386Z,12.50
2018-05-26T03:10:07.361Z,11.10
2018-05-26T03:12:41.209Z,10.00
2018-05-26T03:15:08.937Z,10.13
2018-05-26T03:17:37.979Z,12.33
2018-05-26T03:20:06.229Z,11.53
2018-05-26T03:22:34.505Z,9.53
2018-05-26T03:25:02.785Z,8.63
2018-05-26T03:27:31.053Z,8.97
2018-05-26T03:29:59.337Z,8.50
2018-05-26T03:32:27.610Z,8.97
2018-05-26T03:34:55.892Z,9.73
2018-05-26T03:37:24.170Z,9.93
2018-05-26T03:39:52.434Z,8.50
2018-05-26T03:42:21.177Z,8.77
2018-05-26T03:44:49.449Z,7.83
2018-05-26T03:47:17.729Z,8.47
2018-05-26T03:49:46.023Z,8.30
2018-05-26T03:52:14.322Z,10.80
2018-05-26T03:58:01.519Z,9.50
2018-05-26T04:00:30.563Z,9.87
2018-05-26T04:02:58.850Z,8.77
2018-05-26T04:05:27.122Z,9.23
2018-05-26T04:07:55.413Z,10.83
2018-05-26T04:10:23.689Z,10.70
2018-05-26T04:12:51.967Z,10.27
2018-05-26T04:15:20.259Z,10.53
2018-05-26T04:17:48.552Z,10.63
2018-05-26T04:20:16.847Z,9.87
2018-05-26T04:22:45.165Z,9.50
2018-05-26T04:25:13.449Z,9.70
2018-05-26T04:27:41.717Z,9.50
2018-05-26T04:30:10.001Z,10.07
2018-05-26T04:32:38.278Z,11.63
2018-05-26T04:35:06.574Z,10.23
2018-05-26T04:37:34.850Z,10.50
2018-05-26T04:40:03.126Z,9.57
2018-05-26T04:42:31.877Z,9.80
2018-05-26T04:45:00.149Z,11.00
2018-05-26T04:47:28.442Z,13.87
2018-05-26T04:49:56.717Z,11.63
2018-05-26T04:52:25.006Z,12.40
2018-05-26T04:54:53.277Z,8.90
2018-05-26T04:57:21.566Z,11.30
2018-05-26T04:59:49.842Z,13.53
2018-05-26T05:02:18.138Z,13.57
2018-05-26T05:04:46.414Z,13.20
2018-05-26T05:07:14.702Z,13.00
2018-05-26T05:09:42.989Z,11.07
2018-05-26T05:12:11.273Z,12.53
2018-05-26T05:14:39.553Z,12.20
2018-05-26T05:17:07.829Z,13.67
2018-05-26T05:19:36.122Z,13.30
2018-05-26T05:22:04.402Z,12.60
2018-05-26T05:24:32.695Z,12.97
2018-05-26T05:27:01.007Z,12.33
2018-05-26T05:29:29.325Z,12.87
2018-05-26T05:31:57.601Z,14.37
2018-05-26T05:34:25.893Z,11.53
2018-05-26T05:36:54.172Z,14.20
2018-05-26T05:39:22.450Z,14.47
2018-05-26T05:41:50.760Z,13.83
2018-05-26T05:44:19.033Z,11.57
2018-05-26T05:46:47.314Z,12.20
2018-05-26T05:49:15.609Z,13.03
2018-05-26T05:51:43.901Z,11.17
2018-05-26T05:54:12.191Z,11.97
2018-05-26T05:56:40.475Z,11.80
2018-05-26T05:59:08.758Z,11.33
2018-05-26T06:01:37.045Z,11.63
2018-05-26T06:04:05.323Z,11.30
2018-05-26T06:06:33.610Z,11.17
2018-05-26T06:09:01.906Z,12.03
2018-05-26T06:11:30.181Z,10.57
2018-05-26T06:13:58.461Z,11.80
2018-05-26T06:16:26.746Z,9.73
2018-05-26T06:18:55.021Z,10.73
2018-05-26T06:21:23.310Z,10.20
2018-05-26T06:23:51.589Z,10.10
2018-05-26T06:26:19.909Z,10.30
2018-05-26T06:28:48.146Z,8.77
2018-05-26T06:31:16.444Z,9.33
2018-05-26T06:33:44.709Z,9.93
2018-05-26T06:36:12.985Z,9.00
2018-05-26T06:38:41.266Z,9.00
2018-05-26T06:41:09.541Z,8.23
2018-05-26T06:43:37.824Z,8.13
2018-05-26T06:46:06.097Z,8.57
2018-05-26T06:48:34.381Z,8.93
2018-05-26T06:51:02.661Z,8.37
2018-05-26T06:53:30.949Z,8.43
2018-05-26T06:55:59.218Z,7.83
2018-05-26T06:58:27.488Z,8.27
2018-05-26T07:00:55.765Z,8.03
2018-05-26T07:03:24.042Z,7.63
2018-05-26T07:05:52.319Z,7.23
2018-05-26T07:08:20.585Z,7.97
2018-05-26T07:10:48.867Z,7.73
2018-05-26T07:13:17.137Z,7.77
2018-05-26T07:15:45.417Z,7.60
2018-05-26T07:18:13.686Z,7.60
2018-05-26T07:20:41.970Z,7.40
2018-05-26T07:23:10.241Z,7.50
2018-05-26T07:25:38.696Z,7.40
2018-05-26T07:28:06.961Z,7.10
2018-05-26T07:30:35.231Z,6.67
2018-05-26T07:33:03.506Z,7.40
2018-05-26T07:35:31.789Z,6.93
2018-05-26T07:38:00.785Z,6.70
2018-05-26T07:40:30.022Z,6.40
2018-05-26T07:42:58.311Z,7.27
2018-05-26T07:45:27.561Z,7.03
2018-05-26T07:47:55.854Z,6.20
2018-05-26T07:50:24.122Z,6.27
2018-05-26T07:52:52.406Z,6.70
2018-05-26T07:55:20.879Z,6.63
2018-05-26T07:57:49.269Z,6.17
2018-05-26T08:00:17.421Z,6.57
2018-05-26T08:02:45.698Z,5.90
2018-05-26T08:05:13.962Z,6.47
2018-05-26T08:07:42.237Z,6.43
2018-05-26T08:10:10.538Z,5.83
2018-05-26T08:12:43.379Z,6.33
2018-05-26T08:15:11.653Z,5.70
2018-05-26T08:17:39.955Z,5.90
2018-05-26T08:20:08.236Z,5.87
2018-05-26T08:22:36.541Z,5.77
2018-05-26T08:25:05.573Z,5.93
2018-05-26T08:27:33.848Z,5.70
2018-05-26T08:30:02.182Z,5.90
2018-05-26T08:32:31.270Z,5.53
2018-05-26T08:34:59.562Z,6.07
2018-05-26T08:37:27.831Z,5.77
2018-05-26T08:39:56.122Z,6.03
2018-05-26T08:42:24.401Z,5.63
2018-05-26T08:44:52.673Z,6.10
2018-05-26T08:47:20.957Z,5.77
2018-05-26T08:49:49.240Z,5.77
2018-05-26T08:52:17.520Z,5.70
2018-05-26T08:54:45.804Z,6.13
2018-05-26T08:57:14.634Z,5.33
2018-05-26T08:59:42.913Z,6.00
2018-05-26T09:02:11.229Z,5.87
2018-05-26T09:04:39.465Z,5.73
2018-05-26T09:07:08.080Z,5.87
2018-05-26T09:09:36.351Z,5.97
2018-05-26T09:12:04.658Z,5.27
2018-05-26T09:14:32.951Z,5.23
2018-05-26T09:17:01.231Z,5.47
2018-05-26T09:19:29.505Z,5.20
2018-05-26T09:21:57.840Z,5.30
2018-05-26T09:24:26.066Z,4.70
2018-05-26T09:26:54.348Z,4.63
2018-05-26T09:29:22.722Z,4.63
2018-05-26T09:31:51.000Z,5.40
2018-05-26T09:34:19.266Z,4.57
2018-05-26T09:36:47.552Z,5.03
2018-05-26T09:39:15.817Z,4.83
2018-05-26T09:41:44.110Z,5.27
2018-05-26T09:44:13.374Z,4.93
2018-05-26T09:46:41.720Z,4.60
2018-05-26T09:49:10.027Z,4.37
2018-05-26T09:51:38.298Z,5.20
2018-05-26T09:54:06.923Z,4.50
2018-05-26T09:56:35.202Z,5.00
2018-05-26T09:59:03.539Z,4.90
2018-05-26T10:01:31.842Z,5.07
2018-05-26T10:04:00.125Z,4.90
2018-05-26T10:06:28.397Z,4.93
2018-05-26T10:08:56.673Z,5.20
2018-05-26T10:11:25.134Z,5.37
2018-05-26T10:13:53.409Z,4.57
2018-05-26T10:16:22.635Z,4.67
2018-05-26T10:18:50.926Z,4.60
2018-05-26T10:21:19.198Z,4.57
2018-05-26T10:23:47.491Z,4.60
2018-05-26T10:29:14.064Z,4.17
2018-05-26T10:31:42.366Z,4.40
2018-05-26T10:34:10.638Z,4.03
2018-05-26T10:36:38.961Z,4.40
2018-05-26T10:39:07.238Z,4.00
2018-05-26T10:41:35.527Z,3.83
2018-05-26T10:44:03.798Z,4.17
2018-05-26T10:46:32.986Z,4.20
2018-05-26T10:49:01.270Z,4.50
2018-05-26T10:51:29.545Z,4.23
2018-05-26T10:53:57.855Z,3.93
2018-05-26T10:56:26.716Z,3.83
2018-05-26T10:58:55.013Z,3.90
2018-05-26T11:01:23.281Z,4.40
2018-05-26T11:03:51.571Z,3.90
2018-05-26T11:06:19.838Z,4.00
2018-05-26T11:08:48.118Z,3.97
2018-05-26T11:11:16.417Z,4.20
2018-05-26T11:13:44.702Z,3.80
2018-05-26T11:16:19.391Z,3.97
2018-05-26T11:18:47.607Z,4.17
2018-05-26T11:21:15.894Z,3.63
2018-05-26T11:23:44.191Z,3.97
2018-05-26T11:26:12.496Z,3.90
2018-05-26T11:28:40.961Z,3.87
2018-05-26T11:31:09.266Z,3.70
2018-05-26T11:33:37.579Z,3.87
2018-05-26T11:36:05.862Z,3.83
2018-05-26T11:38:34.134Z,3.80
2018-05-26T11:41:02.467Z,3.93
2018-05-26T11:43:30.743Z,4.03
2018-05-26T11:45:59.028Z,3.80
2018-05-26T11:48:27.294Z,4.00
2018-05-26T11:50:56.450Z,4.20
2018-05-26T11:53:24.743Z,4.07
2018-05-26T11:55:53.026Z,4.03
2018-05-26T11:58:23.263Z,3.63
2018-05-26T12:00:51.550Z,3.70
2018-05-26T12:03:19.817Z,3.83
2018-05-26T12:05:48.098Z,4.20
2018-05-26T12:08:16.395Z,4.00
2018-05-26T12:10:44.723Z,4.00
2018-05-26T12:13:12.965Z,4.20
2018-05-26T12:15:41.229Z,3.70
2018-05-26T12:18:09.509Z,3.90
2018-05-26T12:20:37.773Z,3.80
2018-05-26T12:23:06.050Z,4.13
2018-05-26T12:25:34.313Z,3.77
2018-05-26T12:28:02.595Z,3.80
2018-05-26T12:30:30.861Z,3.77
2018-05-26T12:32:59.229Z,3.37
2018-05-26T12:35:27.597Z,3.60
2018-05-26T12:37:55.881Z,3.70
2018-05-26T12:40:24.162Z,4.00
2018-05-26T12:42:52.487Z,3.50
2018-05-26T12:45:20.759Z,3.97
2018-05-26T12:47:49.038Z,3.90
2018-05-26T12:50:17.309Z,3.70
2018-05-26T12:52:51.470Z,3.60
2018-05-26T12:55:19.749Z,3.90
2018-05-26T12:57:48.058Z,3.53
2018-05-26T13:00:16.334Z,4.13
2018-05-26T13:02:44.610Z,4.17
2018-05-26T13:05:12.885Z,4.17
2018-05-26T13:07:41.166Z,4.03
2018-05-26T13:10:09.438Z,3.97
2018-05-26T13:12:37.701Z,3.90
2018-05-26T13:15:05.986Z,3.43
2018-05-26T13:17:34.275Z,3.77
2018-05-26T13:20:02.534Z,3.60
2018-05-26T13:22:30.798Z,3.80
2018-05-26T13:24:59.074Z,3.60
2018-05-26T13:27:27.344Z,3.47
2018-05-26T13:29:55.625Z,3.80
2018-05-26T13:32:23.899Z,3.60
2018-05-26T13:34:52.162Z,3.70
2018-05-26T13:37:20.439Z,4.03
2018-05-26T13:39:48.736Z,4.27
2018-05-26T13:42:17.006Z,4.17
2018-05-26T13:44:45.282Z,4.40
2018-05-26T13:47:13.558Z,4.40
2018-05-26T13:49:41.833Z,4.60
2018-05-26T13:52:10.207Z,4.17
2018-05-26T13:54:38.440Z,4.10
2018-05-26T13:57:06.678Z,4.23
2018-05-26T13:59:34.948Z,3.87
2018-05-26T14:02:03.233Z,4.03
2018-05-26T14:04:31.503Z,4.87
2018-05-26T14:06:59.797Z,4.80
2018-05-26T14:09:28.067Z,5.10
2018-05-26T14:11:56.345Z,5.03
2018-05-26T14:14:24.668Z,5.10
2018-05-26T14:16:52.933Z,4.93
2018-05-26T14:19:21.218Z,4.37
2018-05-26T14:21:49.505Z,5.20
2018-05-26T14:24:17.794Z,4.73
2018-05-26T14:26:46.070Z,4.80
2018-05-26T14:29:14.341Z,4.80
2018-05-26T14:31:42.609Z,4.77
2018-05-26T14:34:10.886Z,4.73
2018-05-26T14:36:39.165Z,4.80
2018-05-26T14:39:07.470Z,5.20
2018-05-26T14:41:35.742Z,4.73
2018-05-26T14:44:04.026Z,4.60
2018-05-26T14:46:32.297Z,4.20
2018-05-26T14:49:00.577Z,4.53
2018-05-26T14:51:28.858Z,4.70
2018-05-26T14:53:57.147Z,4.50
2018-05-26T14:56:25.414Z,5.13
2018-05-26T14:58:53.689Z,4.80
2018-05-26T15:01:21.962Z,5.17
2018-05-26T15:03:50.255Z,5.00
2018-05-26T15:06:18.521Z,4.57
2018-05-26T15:08:46.816Z,4.83
2018-05-26T15:11:15.178Z,4.50
2018-05-26T15:13:43.454Z,4.50
2018-05-26T15:16:11.735Z,4.47
2018-05-26T15:18:40.016Z,4.50
2018-05-26T15:21:08.297Z,4.30
2018-05-26T15:23:36.566Z,4.83
2018-05-26T15:26:04.841Z,4.53
2018-05-26T15:28:33.113Z,4.80
2018-05-26T15:31:01.399Z,4.83
2018-05-26T15:33:29.674Z,4.37
2018-05-26T15:35:58.058Z,4.50
2018-05-26T15:38:26.325Z,5.10
2018-05-26T15:40:54.611Z,4.43
2018-05-26T15:43:22.878Z,4.73
2018-05-26T15:45:51.161Z,4.37
2018-05-26T15:48:19.426Z,4.40
2018-05-26T15:50:47.710Z,4.60
2018-05-26T15:53:15.978Z,5.10
2018-05-26T15:55:44.268Z,4.57
2018-05-26T15:58:12.534Z,4.97
2018-05-26T16:00:40.811Z,4.87
2018-05-26T16:03:09.095Z,4.87
2018-05-26T16:05:37.362Z,4.90
2018-05-26T16:08:05.666Z,5.13
2018-05-26T16:10:34.777Z,4.73
2018-05-26T16:13:03.058Z,4.70
2018-05-26T16:15:31.333Z,4.50
2018-05-26T16:17:59.616Z,5.17
2018-05-26T16:20:27.881Z,5.13
2018-05-26T16:22:56.162Z,4.90
2018-05-26T16:25:24.442Z,4.57
2018-05-26T16:27:52.717Z,4.90
2018-05-26T16:30:21.714Z,5.03
2018-05-26T16:32:50.001Z,5.17
2018-05-26T16:35:18.278Z,4.97
2018-05-26T16:37:46.565Z,4.77
2018-05-26T16:40:14.863Z,5.60
2018-05-26T16:42:43.158Z,5.10
2018-05-26T16:45:11.443Z,5.37
2018-05-26T16:47:39.716Z,5.20
2018-05-26T16:50:07.997Z,5.23
2018-05-26T16:52:36.271Z,5.10
2018-05-26T16:55:04.543Z,5.30
2018-05-26T16:57:32.908Z,5.50
2018-05-26T17:00:01.149Z,5.40
2018-05-26T17:02:29.417Z,4.60
2018-05-26T17:04:57.704Z,5.20
2018-05-26T17:07:25.973Z,5.00
2018-05-26T17:09:54.266Z,5.10
2018-05-26T17:12:22.546Z,5.10
2018-05-26T17:14:51.421Z,4.80
2018-05-26T17:17:19.710Z,4.90
2018-05-26T17:19:48.003Z,4.90
2018-05-26T17:22:16.292Z,5.13
2018-05-26T17:24:44.566Z,5.50
2018-05-26T17:27:12.947Z,4.60
2018-05-26T17:29:41.288Z,5.33
2018-05-26T17:32:09.562Z,4.97
2018-05-26T17:34:37.830Z,5.47
2018-05-26T17:37:06.147Z,5.27
2018-05-26T17:39:34.378Z,5.27
2018-05-26T17:42:02.670Z,5.03
2018-05-26T17:44:30.961Z,5.40
2018-05-26T17:46:59.247Z,5.10
2018-05-26T17:49:27.531Z,5.17
2018-05-26T17:51:55.805Z,4.77
2018-05-26T17:54:24.117Z,5.03
2018-05-26T17:56:52.425Z,6.73
2018-05-26T17:59:20.717Z,5.80
2018-05-26T18:01:48.994Z,5.40
2018-05-26T18:04:17.272Z,6.43
2018-05-26T18:06:45.558Z,7.53
2018-05-26T18:09:13.985Z,6.70
2018-05-26T18:11:42.275Z,6.70
2018-05-26T18:14:10.545Z,6.30
2018-05-26T18:16:38.886Z,6.83
2018-05-26T18:19:07.159Z,6.17
2018-05-26T18:21:35.438Z,5.40
2018-05-26T18:24:03.724Z,5.40
2018-05-26T18:26:31.993Z,4.87
2018-05-26T18:29:00.273Z,5.33
2018-05-26T18:31:28.541Z,4.57
2018-05-26T18:33:56.826Z,5.10
2018-05-26T18:36:25.106Z,5.20
2018-05-26T18:38:53.393Z,4.30
2018-05-26T18:41:21.663Z,5.20
2018-05-26T18:43:49.939Z,5.40
2018-05-26T18:46:18.276Z,5.10
2018-05-26T18:48:46.601Z,4.77
2018-05-26T18:51:14.865Z,4.27
2018-05-26T18:53:43.179Z,4.80
2018-05-26T18:56:11.611Z,4.50
2018-05-26T18:58:39.893Z,4.93
2018-05-26T19:01:08.156Z,5.00
2018-05-26T19:03:36.439Z,5.60
2018-05-26T19:06:04.706Z,5.13
2018-05-26T19:08:32.981Z,5.47
2018-05-26T19:11:01.275Z,5.10
2018-05-26T19:13:29.538Z,4.30
2018-05-26T19:15:57.900Z,4.50
2018-05-26T19:18:26.134Z,4.60
2018-05-26T19:20:54.410Z,4.30
2018-05-26T19:23:22.772Z,4.67
2018-05-26T19:25:51.060Z,5.13
2018-05-26T19:28:19.325Z,5.87
2018-05-26T19:30:47.967Z,5.10
2018-05-26T19:33:16.253Z,6.03
2018-05-26T19:35:44.542Z,4.63
2018-05-26T19:38:12.906Z,4.87
2018-05-26T19:40:41.189Z,6.37
2018-05-26T19:43:09.466Z,9.30
2018-05-26T19:45:37.767Z,18.03
2018-05-26T19:48:06.504Z,17.80
2018-05-26T19:50:34.786Z,21.00
2018-05-26T19:53:03.106Z,34.23
2018-05-26T19:55:31.385Z,33.03
2018-05-26T19:57:59.677Z,22.47
2018-05-26T20:00:27.955Z,17.17
2018-05-26T20:02:56.328Z,14.87
2018-05-26T20:05:24.631Z,11.43
2018-05-26T20:07:52.971Z,16.33
2018-05-26T20:10:21.365Z,20.57
2018-05-26T20:12:49.645Z,15.30
2018-05-26T20:15:18.242Z,11.67
2018-05-26T20:17:46.539Z,9.20
2018-05-26T20:20:14.822Z,7.87
2018-05-26T20:22:43.102Z,7.60
2018-05-26T20:25:11.395Z,7.70
2018-05-26T20:27:39.684Z,8.20
2018-05-26T20:30:07.969Z,7.60
2018-05-26T20:32:36.250Z,7.77
2018-05-26T20:35:04.538Z,8.20
2018-05-26T20:37:32.974Z,8.20
2018-05-26T20:40:01.258Z,7.17
2018-05-26T20:42:29.571Z,7.07
2018-05-26T20:44:57.861Z,7.40
2018-05-26T20:47:26.139Z,7.20
2018-05-26T20:49:54.623Z,7.97
2018-05-26T20:52:22.897Z,7.93
2018-05-26T20:54:51.174Z,7.63
2018-05-26T20:57:19.454Z,6.90
2018-05-26T20:59:47.721Z,6.30
2018-05-26T21:02:15.998Z,5.97
2018-05-26T21:04:44.275Z,6.03
2018-05-26T21:07:12.562Z,5.90
2018-05-26T21:09:40.873Z,7.00
2018-05-26T21:12:09.170Z,6.57
2018-05-26T21:14:37.442Z,6.30
2018-05-26T21:17:05.721Z,6.23
2018-05-26T21:19:34.025Z,6.23
2018-05-26T21:22:02.298Z,5.83
2018-05-26T21:24:30.558Z,5.93
2018-05-26T21:26:58.839Z,6.07
2018-05-26T21:29:27.123Z,5.50
2018-05-26T21:31:55.392Z,6.87
2018-05-26T21:34:23.675Z,7.07
2018-05-26T21:36:51.956Z,6.27
2018-05-26T21:39:20.409Z,5.90
2018-05-26T21:41:48.682Z,5.80
2018-05-26T21:44:16.958Z,6.17
2018-05-26T21:46:45.230Z,6.00
2018-05-26T21:49:13.539Z,5.73
2018-05-26T21:51:41.810Z,6.30
2018-05-26T21:54:10.086Z,6.60
2018-05-26T21:56:38.382Z,7.27
2018-05-26T21:59:06.640Z,6.83
2018-05-26T22:01:34.931Z,6.73
2018-05-26T22:04:03.203Z,6.73
2018-05-26T22:06:31.527Z,6.23
2018-05-26T22:08:59.758Z,6.27
2018-05-26T22:11:28.339Z,6.80
2018-05-26T22:13:56.621Z,7.90
2018-05-26T22:16:25.269Z,6.90
2018-05-26T22:18:53.545Z,7.17
2018-05-26T22:21:21.823Z,7.27
2018-05-26T22:23:50.105Z,7.30
2018-05-26T22:26:18.381Z,6.97
2018-05-26T22:28:46.661Z,6.77
2018-05-26T22:31:14.938Z,6.93
2018-05-26T22:33:43.232Z,6.50
2018-05-26T22:36:11.497Z,6.97
2018-05-26T22:38:39.800Z,6.67
2018-05-26T22:41:08.154Z,6.27
2018-05-26T22:43:36.438Z,6.53
2018-05-26T22:46:04.714Z,6.50
2018-05-26T22:48:32.975Z,6.00
2018-05-26T22:51:01.273Z,6.40
2018-05-26T22:53:29.555Z,6.43
2018-05-26T22:55:57.826Z,6.03
2018-05-26T22:58:26.111Z,5.57
2018-05-26T23:00:54.382Z,5.87
2018-05-26T23:03:22.670Z,5.97
2018-05-26T23:05:51.493Z,6.80
2018-05-26T23:08:20.661Z,6.83
2018-05-26T23:10:48.939Z,5.87
2018-05-26T23:13:17.201Z,5.60
2018-05-26T23:15:45.485Z,5.63
2018-05-26T23:18:13.752Z,5.43
2018-05-26T23:20:42.034Z,5.93
2018-05-26T23:23:10.321Z,6.13
2018-05-26T23:25:38.594Z,7.07
2018-05-26T23:28:06.861Z,7.87
2018-05-26T23:30:35.135Z,8.37
2018-05-26T23:33:03.425Z,9.07
2018-05-26T23:35:31.769Z,9.63
2018-05-26T23:38:00.021Z,10.37
2018-05-26T23:40:28.313Z,9.57
2018-05-26T23:42:56.596Z,8.43
2018-05-26T23:45:24.881Z,10.03
2018-05-26T23:47:53.166Z,8.67
2018-05-26T23:50:21.437Z,10.13
2018-05-26T23:52:49.714Z,9.00
2018-05-26T23:55:18.012Z,8.73
2018-05-26T23:57:46.289Z,9.13
